sensor_id;sensor_type;location;lat;lon;timestamp;P1;durP1;ratioP1;P2;durP2;ratioP2
77222;SDS011;66218;48.928;9.140;2022-12-20T00:00:25;13.00;;;6.20;;
77222;SDS011;66218;48.928;9.140;2022-12-20T00:02:50;9.07;;;4.72;;
77222;SDS011;66218;48.928;9.140;2022-12-20T00:05:16;10.98;;;6.20;;
77222;SDS011;66218;48.928;9.140;2022-12-20T00:07:41;9.02;;;4.85;;
77222;SDS011;66218;48.928;9.140;2022-12-20T00:10:06;9.55;;;5.53;;
77222;SDS011;66218;48.928;9.140;2022-12-20T00:12:32;7.90;;;4.38;;
77222;SDS011;66218;48.928;9.140;2022-12-20T00:14:57;10.05;;;5.15;;
77222;SDS011;66218;48.928;9.140;2022-12-20T00:17:23;9.45;;;5.95;;
77222;SDS011;66218;48.928;9.140;2022-12-20T00:19:48;11.57;;;4.88;;
77222;SDS011;66218;48.928;9.140;2022-12-20T00:22:13;8.73;;;5.38;;
77222;SDS011;66218;48.928;9.140;2022-12-20T00:24:38;6.93;;;5.03;;
77222;SDS011;66218;48.928;9.140;2022-12-20T00:27:04;8.88;;;4.57;;
77222;SDS011;66218;48.928;9.140;2022-12-20T00:29:29;6.88;;;4.55;;
77222;SDS011;66218;48.928;9.140;2022-12-20T00:31:54;12.52;;;5.13;;
77222;SDS011;66218;48.928;9.140;2022-12-20T00:34:20;8.98;;;5.47;;
77222;SDS011;66218;48.928;9.140;2022-12-20T00:36:45;11.10;;;5.80;;
77222;SDS011;66218;48.928;9.140;2022-12-20T00:39:10;6.68;;;4.45;;
77222;SDS011;66218;48.928;9.140;2022-12-20T00:41:36;11.13;;;5.25;;
77222;SDS011;66218;48.928;9.140;2022-12-20T00:44:02;6.40;;;3.90;;
77222;SDS011;66218;48.928;9.140;2022-12-20T00:46:28;6.30;;;3.83;;
77222;SDS011;66218;48.928;9.140;2022-12-20T00:48:54;9.95;;;5.32;;
77222;SDS011;66218;48.928;9.140;2022-12-20T00:51:21;7.30;;;4.30;;
77222;SDS011;66218;48.928;9.140;2022-12-20T00:53:48;7.97;;;4.07;;
77222;SDS011;66218;48.928;9.140;2022-12-20T00:56:14;7.05;;;4.93;;
77222;SDS011;66218;48.928;9.140;2022-12-20T00:58:40;10.55;;;4.65;;
77222;SDS011;66218;48.928;9.140;2022-12-20T01:01:13;5.82;;;4.25;;
77222;SDS011;66218;48.928;9.140;2022-12-20T01:03:47;4.28;;;3.42;;
77222;SDS011;66218;48.928;9.140;2022-12-20T01:06:13;10.25;;;5.22;;
77222;SDS011;66218;48.928;9.140;2022-12-20T01:08:38;7.13;;;4.68;;
77222;SDS011;66218;48.928;9.140;2022-12-20T01:13:37;9.50;;;5.55;;
77222;SDS011;66218;48.928;9.140;2022-12-20T01:18:30;6.95;;;4.55;;
77222;SDS011;66218;48.928;9.140;2022-12-20T01:21:06;9.20;;;3.95;;
77222;SDS011;66218;48.928;9.140;2022-12-20T01:23:33;7.95;;;4.63;;
77222;SDS011;66218;48.928;9.140;2022-12-20T01:25:59;7.15;;;3.60;;
77222;SDS011;66218;48.928;9.140;2022-12-20T01:28:26;11.27;;;4.85;;
77222;SDS011;66218;48.928;9.140;2022-12-20T01:30:52;9.02;;;6.53;;
77222;SDS011;66218;48.928;9.140;2022-12-20T01:33:17;7.88;;;5.10;;
77222;SDS011;66218;48.928;9.140;2022-12-20T01:35:53;7.22;;;4.55;;
77222;SDS011;66218;48.928;9.140;2022-12-20T01:38:22;7.32;;;4.80;;
77222;SDS011;66218;48.928;9.140;2022-12-20T01:40:47;8.95;;;5.00;;
77222;SDS011;66218;48.928;9.140;2022-12-20T01:43:13;8.27;;;4.65;;
77222;SDS011;66218;48.928;9.140;2022-12-20T01:45:39;11.48;;;5.07;;
77222;SDS011;66218;48.928;9.140;2022-12-20T01:48:05;10.10;;;5.10;;
77222;SDS011;66218;48.928;9.140;2022-12-20T01:50:31;7.30;;;5.25;;
77222;SDS011;66218;48.928;9.140;2022-12-20T01:52:57;9.55;;;6.10;;
77222;SDS011;66218;48.928;9.140;2022-12-20T01:55:25;10.18;;;5.93;;
77222;SDS011;66218;48.928;9.140;2022-12-20T01:57:56;13.43;;;4.20;;
77222;SDS011;66218;48.928;9.140;2022-12-20T02:00:33;7.65;;;4.43;;
77222;SDS011;66218;48.928;9.140;2022-12-20T02:02:58;12.73;;;5.63;;
77222;SDS011;66218;48.928;9.140;2022-12-20T02:05:25;9.15;;;5.50;;
77222;SDS011;66218;48.928;9.140;2022-12-20T02:07:52;7.93;;;4.57;;
77222;SDS011;66218;48.928;9.140;2022-12-20T02:10:20;8.98;;;5.90;;
77222;SDS011;66218;48.928;9.140;2022-12-20T02:12:47;11.48;;;5.88;;
77222;SDS011;66218;48.928;9.140;2022-12-20T02:20:45;10.27;;;4.72;;
77222;SDS011;66218;48.928;9.140;2022-12-20T02:23:30;8.45;;;4.70;;
77222;SDS011;66218;48.928;9.140;2022-12-20T02:26:16;8.73;;;4.68;;
77222;SDS011;66218;48.928;9.140;2022-12-20T02:31:33;8.48;;;5.78;;
77222;SDS011;66218;48.928;9.140;2022-12-20T02:34:03;11.15;;;4.78;;
77222;SDS011;66218;48.928;9.140;2022-12-20T02:36:29;9.15;;;5.03;;
77222;SDS011;66218;48.928;9.140;2022-12-20T02:38:55;10.38;;;4.03;;
77222;SDS011;66218;48.928;9.140;2022-12-20T02:41:22;7.47;;;3.88;;
77222;SDS011;66218;48.928;9.140;2022-12-20T02:43:52;9.02;;;5.10;;
77222;SDS011;66218;48.928;9.140;2022-12-20T02:46:38;8.13;;;4.55;;
77222;SDS011;66218;48.928;9.140;2022-12-20T02:49:09;9.10;;;4.22;;
77222;SDS011;66218;48.928;9.140;2022-12-20T02:51:38;8.30;;;5.03;;
77222;SDS011;66218;48.928;9.140;2022-12-20T02:54:07;8.63;;;4.47;;
77222;SDS011;66218;48.928;9.140;2022-12-20T02:56:34;13.10;;;6.05;;
77222;SDS011;66218;48.928;9.140;2022-12-20T02:59:22;9.20;;;5.68;;
77222;SDS011;66218;48.928;9.140;2022-12-20T03:01:50;8.20;;;4.75;;
77222;SDS011;66218;48.928;9.140;2022-12-20T03:04:17;7.10;;;5.50;;
77222;SDS011;66218;48.928;9.140;2022-12-20T03:09:29;8.98;;;4.25;;
77222;SDS011;66218;48.928;9.140;2022-12-20T03:11:55;11.45;;;4.82;;
77222;SDS011;66218;48.928;9.140;2022-12-20T03:14:21;8.10;;;4.38;;
77222;SDS011;66218;48.928;9.140;2022-12-20T03:16:46;6.93;;;4.80;;
77222;SDS011;66218;48.928;9.140;2022-12-20T03:19:12;6.90;;;3.88;;
77222;SDS011;66218;48.928;9.140;2022-12-20T03:21:37;5.70;;;3.92;;
77222;SDS011;66218;48.928;9.140;2022-12-20T03:24:02;10.27;;;5.43;;
77222;SDS011;66218;48.928;9.140;2022-12-20T03:26:28;14.13;;;5.10;;
77222;SDS011;66218;48.928;9.140;2022-12-20T03:28:53;9.60;;;5.55;;
77222;SDS011;66218;48.928;9.140;2022-12-20T03:31:18;9.63;;;4.80;;
77222;SDS011;66218;48.928;9.140;2022-12-20T03:33:44;7.47;;;3.97;;
77222;SDS011;66218;48.928;9.140;2022-12-20T03:36:09;5.85;;;4.22;;
77222;SDS011;66218;48.928;9.140;2022-12-20T03:38:35;8.73;;;6.03;;
77222;SDS011;66218;48.928;9.140;2022-12-20T03:41:00;6.88;;;3.65;;
77222;SDS011;66218;48.928;9.140;2022-12-20T03:43:25;10.77;;;5.18;;
77222;SDS011;66218;48.928;9.140;2022-12-20T03:45:51;8.20;;;4.50;;
77222;SDS011;66218;48.928;9.140;2022-12-20T03:48:16;9.00;;;4.82;;
77222;SDS011;66218;48.928;9.140;2022-12-20T03:50:41;6.82;;;3.50;;
77222;SDS011;66218;48.928;9.140;2022-12-20T03:53:07;6.90;;;4.78;;
77222;SDS011;66218;48.928;9.140;2022-12-20T03:55:32;9.30;;;5.35;;
77222;SDS011;66218;48.928;9.140;2022-12-20T03:57:57;12.13;;;4.93;;
77222;SDS011;66218;48.928;9.140;2022-12-20T04:00:23;7.13;;;4.47;;
77222;SDS011;66218;48.928;9.140;2022-12-20T04:02:48;10.57;;;4.20;;
77222;SDS011;66218;48.928;9.140;2022-12-20T04:05:13;8.43;;;5.35;;
77222;SDS011;66218;48.928;9.140;2022-12-20T04:07:40;13.00;;;4.93;;
77222;SDS011;66218;48.928;9.140;2022-12-20T04:10:06;9.00;;;5.30;;
77222;SDS011;66218;48.928;9.140;2022-12-20T04:12:31;7.03;;;3.65;;
77222;SDS011;66218;48.928;9.140;2022-12-20T04:14:57;7.68;;;3.95;;
77222;SDS011;66218;48.928;9.140;2022-12-20T04:17:22;4.47;;;3.50;;
77222;SDS011;66218;48.928;9.140;2022-12-20T04:19:47;8.80;;;4.70;;
77222;SDS011;66218;48.928;9.140;2022-12-20T04:22:12;6.55;;;4.07;;
77222;SDS011;66218;48.928;9.140;2022-12-20T04:24:38;7.00;;;3.78;;
77222;SDS011;66218;48.928;9.140;2022-12-20T04:27:03;8.25;;;4.60;;
77222;SDS011;66218;48.928;9.140;2022-12-20T04:29:30;7.80;;;5.35;;
77222;SDS011;66218;48.928;9.140;2022-12-20T04:31:55;9.75;;;4.68;;
77222;SDS011;66218;48.928;9.140;2022-12-20T04:34:20;9.25;;;5.20;;
77222;SDS011;66218;48.928;9.140;2022-12-20T04:36:49;8.52;;;4.28;;
77222;SDS011;66218;48.928;9.140;2022-12-20T04:39:14;7.32;;;4.53;;
77222;SDS011;66218;48.928;9.140;2022-12-20T04:41:39;7.18;;;4.80;;
77222;SDS011;66218;48.928;9.140;2022-12-20T04:44:04;6.57;;;4.28;;
77222;SDS011;66218;48.928;9.140;2022-12-20T04:46:30;7.38;;;3.85;;
77222;SDS011;66218;48.928;9.140;2022-12-20T04:48:55;7.82;;;5.25;;
77222;SDS011;66218;48.928;9.140;2022-12-20T04:51:20;8.77;;;3.50;;
77222;SDS011;66218;48.928;9.140;2022-12-20T04:53:46;11.15;;;5.25;;
77222;SDS011;66218;48.928;9.140;2022-12-20T04:56:18;7.90;;;4.25;;
77222;SDS011;66218;48.928;9.140;2022-12-20T04:58:46;10.80;;;4.15;;
77222;SDS011;66218;48.928;9.140;2022-12-20T05:01:13;8.88;;;4.07;;
77222;SDS011;66218;48.928;9.140;2022-12-20T05:03:38;10.73;;;4.70;;
77222;SDS011;66218;48.928;9.140;2022-12-20T05:06:04;6.55;;;3.75;;
77222;SDS011;66218;48.928;9.140;2022-12-20T05:08:29;9.27;;;3.83;;
77222;SDS011;66218;48.928;9.140;2022-12-20T05:10:55;7.28;;;3.60;;
77222;SDS011;66218;48.928;9.140;2022-12-20T05:13:20;5.90;;;4.38;;
77222;SDS011;66218;48.928;9.140;2022-12-20T05:15:49;13.25;;;4.00;;
77222;SDS011;66218;48.928;9.140;2022-12-20T05:18:16;5.60;;;3.28;;
77222;SDS011;66218;48.928;9.140;2022-12-20T05:20:41;7.30;;;3.95;;
77222;SDS011;66218;48.928;9.140;2022-12-20T05:23:07;7.85;;;3.83;;
77222;SDS011;66218;48.928;9.140;2022-12-20T05:25:54;8.65;;;4.57;;
77222;SDS011;66218;48.928;9.140;2022-12-20T05:28:38;6.07;;;3.65;;
77222;SDS011;66218;48.928;9.140;2022-12-20T05:31:06;7.15;;;3.28;;
77222;SDS011;66218;48.928;9.140;2022-12-20T05:33:32;5.45;;;2.83;;
77222;SDS011;66218;48.928;9.140;2022-12-20T05:35:57;8.57;;;5.28;;
77222;SDS011;66218;48.928;9.140;2022-12-20T05:38:23;7.95;;;4.60;;
77222;SDS011;66218;48.928;9.140;2022-12-20T05:40:48;7.20;;;4.13;;
77222;SDS011;66218;48.928;9.140;2022-12-20T05:43:15;7.50;;;3.22;;
77222;SDS011;66218;48.928;9.140;2022-12-20T05:45:45;8.05;;;4.00;;
77222;SDS011;66218;48.928;9.140;2022-12-20T05:48:12;6.72;;;3.45;;
77222;SDS011;66218;48.928;9.140;2022-12-20T05:50:37;9.55;;;3.90;;
77222;SDS011;66218;48.928;9.140;2022-12-20T05:53:03;5.85;;;3.20;;
77222;SDS011;66218;48.928;9.140;2022-12-20T05:55:28;9.68;;;4.32;;
77222;SDS011;66218;48.928;9.140;2022-12-20T05:57:54;7.18;;;3.70;;
77222;SDS011;66218;48.928;9.140;2022-12-20T06:00:20;7.75;;;3.50;;
77222;SDS011;66218;48.928;9.140;2022-12-20T06:02:45;5.07;;;3.65;;
77222;SDS011;66218;48.928;9.140;2022-12-20T06:05:10;6.28;;;4.03;;
77222;SDS011;66218;48.928;9.140;2022-12-20T06:07:36;6.88;;;4.18;;
77222;SDS011;66218;48.928;9.140;2022-12-20T06:10:01;5.93;;;3.40;;
77222;SDS011;66218;48.928;9.140;2022-12-20T06:12:29;10.27;;;4.80;;
77222;SDS011;66218;48.928;9.140;2022-12-20T06:14:55;9.70;;;3.97;;
77222;SDS011;66218;48.928;9.140;2022-12-20T06:17:21;8.18;;;4.00;;
77222;SDS011;66218;48.928;9.140;2022-12-20T06:19:46;13.30;;;5.47;;
77222;SDS011;66218;48.928;9.140;2022-12-20T06:22:12;10.80;;;4.65;;
77222;SDS011;66218;48.928;9.140;2022-12-20T06:24:37;6.60;;;4.00;;
77222;SDS011;66218;48.928;9.140;2022-12-20T06:27:06;7.25;;;4.13;;
77222;SDS011;66218;48.928;9.140;2022-12-20T06:29:31;8.48;;;4.72;;
77222;SDS011;66218;48.928;9.140;2022-12-20T06:31:57;9.02;;;3.88;;
77222;SDS011;66218;48.928;9.140;2022-12-20T06:34:22;6.38;;;3.25;;
77222;SDS011;66218;48.928;9.140;2022-12-20T06:36:48;7.70;;;3.95;;
77222;SDS011;66218;48.928;9.140;2022-12-20T06:39:13;5.60;;;4.07;;
77222;SDS011;66218;48.928;9.140;2022-12-20T06:41:39;7.90;;;3.85;;
77222;SDS011;66218;48.928;9.140;2022-12-20T06:44:07;6.65;;;4.40;;
77222;SDS011;66218;48.928;9.140;2022-12-20T06:46:32;12.23;;;5.65;;
77222;SDS011;66218;48.928;9.140;2022-12-20T06:48:58;7.93;;;5.68;;
77222;SDS011;66218;48.928;9.140;2022-12-20T06:51:23;6.50;;;3.97;;
77222;SDS011;66218;48.928;9.140;2022-12-20T06:53:49;10.18;;;4.30;;
77222;SDS011;66218;48.928;9.140;2022-12-20T06:56:14;7.10;;;3.70;;
77222;SDS011;66218;48.928;9.140;2022-12-20T06:58:39;9.10;;;3.83;;
77222;SDS011;66218;48.928;9.140;2022-12-20T07:01:04;7.18;;;4.00;;
77222;SDS011;66218;48.928;9.140;2022-12-20T07:03:30;7.60;;;3.78;;
77222;SDS011;66218;48.928;9.140;2022-12-20T07:05:55;5.47;;;3.42;;
77222;SDS011;66218;48.928;9.140;2022-12-20T07:08:21;12.68;;;4.47;;
77222;SDS011;66218;48.928;9.140;2022-12-20T07:10:47;6.75;;;3.78;;
77222;SDS011;66218;48.928;9.140;2022-12-20T07:13:13;6.80;;;4.53;;
77222;SDS011;66218;48.928;9.140;2022-12-20T07:15:38;10.02;;;4.57;;
77222;SDS011;66218;48.928;9.140;2022-12-20T07:18:03;4.85;;;2.47;;
77222;SDS011;66218;48.928;9.140;2022-12-20T07:20:37;6.50;;;3.53;;
77222;SDS011;66218;48.928;9.140;2022-12-20T07:23:02;5.35;;;4.03;;
77222;SDS011;66218;48.928;9.140;2022-12-20T07:25:27;7.95;;;3.50;;
77222;SDS011;66218;48.928;9.140;2022-12-20T07:27:53;9.57;;;3.92;;
77222;SDS011;66218;48.928;9.140;2022-12-20T07:30:18;7.43;;;4.20;;
77222;SDS011;66218;48.928;9.140;2022-12-20T07:32:45;5.47;;;3.10;;
77222;SDS011;66218;48.928;9.140;2022-12-20T07:35:11;5.90;;;2.75;;
77222;SDS011;66218;48.928;9.140;2022-12-20T07:37:36;5.00;;;2.88;;
77222;SDS011;66218;48.928;9.140;2022-12-20T07:40:02;5.75;;;3.28;;
77222;SDS011;66218;48.928;9.140;2022-12-20T07:42:31;7.93;;;3.63;;
77222;SDS011;66218;48.928;9.140;2022-12-20T07:44:56;5.70;;;3.55;;
77222;SDS011;66218;48.928;9.140;2022-12-20T07:47:24;6.35;;;3.05;;
77222;SDS011;66218;48.928;9.140;2022-12-20T07:49:50;7.13;;;3.97;;
77222;SDS011;66218;48.928;9.140;2022-12-20T07:52:15;6.82;;;3.10;;
77222;SDS011;66218;48.928;9.140;2022-12-20T07:54:43;6.45;;;3.10;;
77222;SDS011;66218;48.928;9.140;2022-12-20T07:57:13;7.10;;;3.25;;
77222;SDS011;66218;48.928;9.140;2022-12-20T07:59:45;6.13;;;2.85;;
77222;SDS011;66218;48.928;9.140;2022-12-20T08:02:18;6.38;;;3.53;;
77222;SDS011;66218;48.928;9.140;2022-12-20T08:04:46;4.28;;;2.72;;
77222;SDS011;66218;48.928;9.140;2022-12-20T08:07:12;7.40;;;4.00;;
77222;SDS011;66218;48.928;9.140;2022-12-20T08:09:39;5.22;;;3.00;;
77222;SDS011;66218;48.928;9.140;2022-12-20T08:12:06;4.80;;;2.38;;
77222;SDS011;66218;48.928;9.140;2022-12-20T08:14:32;4.18;;;2.45;;
77222;SDS011;66218;48.928;9.140;2022-12-20T08:16:58;7.97;;;3.00;;
77222;SDS011;66218;48.928;9.140;2022-12-20T08:19:23;6.68;;;2.90;;
77222;SDS011;66218;48.928;9.140;2022-12-20T08:21:48;6.18;;;3.30;;
77222;SDS011;66218;48.928;9.140;2022-12-20T08:24:14;7.70;;;3.85;;
77222;SDS011;66218;48.928;9.140;2022-12-20T08:26:42;5.95;;;3.90;;
77222;SDS011;66218;48.928;9.140;2022-12-20T08:29:07;5.80;;;2.92;;
77222;SDS011;66218;48.928;9.140;2022-12-20T08:31:37;6.43;;;3.03;;
77222;SDS011;66218;48.928;9.140;2022-12-20T08:34:02;6.75;;;3.25;;
77222;SDS011;66218;48.928;9.140;2022-12-20T08:36:28;4.75;;;2.92;;
77222;SDS011;66218;48.928;9.140;2022-12-20T08:40:11;2.78;;;2.28;;
77222;SDS011;66218;48.928;9.140;2022-12-20T08:42:37;5.40;;;2.80;;
77222;SDS011;66218;48.928;9.140;2022-12-20T08:45:02;6.55;;;2.80;;
77222;SDS011;66218;48.928;9.140;2022-12-20T08:47:29;5.05;;;2.75;;
77222;SDS011;66218;48.928;9.140;2022-12-20T08:49:54;5.47;;;3.20;;
77222;SDS011;66218;48.928;9.140;2022-12-20T08:52:22;6.20;;;2.90;;
77222;SDS011;66218;48.928;9.140;2022-12-20T08:54:48;7.03;;;2.60;;
77222;SDS011;66218;48.928;9.140;2022-12-20T08:57:13;5.20;;;2.75;;
77222;SDS011;66218;48.928;9.140;2022-12-20T08:59:38;7.57;;;4.25;;
77222;SDS011;66218;48.928;9.140;2022-12-20T09:02:03;8.73;;;3.17;;
77222;SDS011;66218;48.928;9.140;2022-12-20T09:04:29;7.72;;;4.03;;
77222;SDS011;66218;48.928;9.140;2022-12-20T09:06:57;7.20;;;3.38;;
77222;SDS011;66218;48.928;9.140;2022-12-20T09:09:25;6.45;;;3.45;;
77222;SDS011;66218;48.928;9.140;2022-12-20T09:11:50;5.57;;;3.35;;
77222;SDS011;66218;48.928;9.140;2022-12-20T09:14:16;7.45;;;3.97;;
77222;SDS011;66218;48.928;9.140;2022-12-20T09:16:45;4.88;;;3.03;;
77222;SDS011;66218;48.928;9.140;2022-12-20T09:19:18;6.72;;;2.97;;
77222;SDS011;66218;48.928;9.140;2022-12-20T09:21:43;6.28;;;3.08;;
77222;SDS011;66218;48.928;9.140;2022-12-20T09:24:09;6.75;;;2.67;;
77222;SDS011;66218;48.928;9.140;2022-12-20T09:26:37;7.22;;;2.97;;
77222;SDS011;66218;48.928;9.140;2022-12-20T09:29:04;5.70;;;2.83;;
77222;SDS011;66218;48.928;9.140;2022-12-20T09:31:32;8.40;;;3.20;;
77222;SDS011;66218;48.928;9.140;2022-12-20T09:34:00;5.55;;;3.10;;
77222;SDS011;66218;48.928;9.140;2022-12-20T09:36:29;6.32;;;3.60;;
77222;SDS011;66218;48.928;9.140;2022-12-20T09:38:57;7.03;;;2.97;;
77222;SDS011;66218;48.928;9.140;2022-12-20T09:44:16;6.05;;;2.83;;
77222;SDS011;66218;48.928;9.140;2022-12-20T09:46:58;5.78;;;2.55;;
77222;SDS011;66218;48.928;9.140;2022-12-20T09:49:27;5.60;;;3.45;;
77222;SDS011;66218;48.928;9.140;2022-12-20T10:00:07;4.93;;;2.88;;
77222;SDS011;66218;48.928;9.140;2022-12-20T10:02:42;7.93;;;3.25;;
77222;SDS011;66218;48.928;9.140;2022-12-20T10:05:12;4.88;;;2.38;;
77222;SDS011;66218;48.928;9.140;2022-12-20T10:07:51;7.40;;;3.05;;
77222;SDS011;66218;48.928;9.140;2022-12-20T10:21:48;5.47;;;2.75;;
77222;SDS011;66218;48.928;9.140;2022-12-20T10:24:17;5.88;;;2.97;;
77222;SDS011;66218;48.928;9.140;2022-12-20T10:26:49;5.28;;;3.95;;
77222;SDS011;66218;48.928;9.140;2022-12-20T10:29:18;9.63;;;4.00;;
77222;SDS011;66218;48.928;9.140;2022-12-20T10:31:45;8.15;;;3.72;;
77222;SDS011;66218;48.928;9.140;2022-12-20T10:34:12;5.35;;;3.10;;
77222;SDS011;66218;48.928;9.140;2022-12-20T10:36:37;5.95;;;3.10;;
77222;SDS011;66218;48.928;9.140;2022-12-20T10:39:04;8.65;;;3.35;;
77222;SDS011;66218;48.928;9.140;2022-12-20T10:46:49;8.30;;;3.25;;
77222;SDS011;66218;48.928;9.140;2022-12-20T10:51:53;4.97;;;2.88;;
77222;SDS011;66218;48.928;9.140;2022-12-20T10:56:57;4.50;;;2.78;;
77222;SDS011;66218;48.928;9.140;2022-12-20T10:59:28;6.75;;;3.72;;
77222;SDS011;66218;48.928;9.140;2022-12-20T11:01:59;6.97;;;3.90;;
77222;SDS011;66218;48.928;9.140;2022-12-20T11:06:51;6.82;;;3.97;;
77222;SDS011;66218;48.928;9.140;2022-12-20T11:09:24;6.38;;;3.75;;
77222;SDS011;66218;48.928;9.140;2022-12-20T11:11:59;8.70;;;3.50;;
77222;SDS011;66218;48.928;9.140;2022-12-20T11:14:32;6.97;;;3.42;;
77222;SDS011;66218;48.928;9.140;2022-12-20T11:16:59;9.15;;;4.20;;
77222;SDS011;66218;48.928;9.140;2022-12-20T11:19:35;8.18;;;3.42;;
77222;SDS011;66218;48.928;9.140;2022-12-20T11:27:42;7.65;;;3.65;;
77222;SDS011;66218;48.928;9.140;2022-12-20T11:36:26;5.32;;;3.03;;
77222;SDS011;66218;48.928;9.140;2022-12-20T11:39:21;7.45;;;3.38;;
77222;SDS011;66218;48.928;9.140;2022-12-20T11:42:04;7.68;;;4.15;;
77222;SDS011;66218;48.928;9.140;2022-12-20T11:47:12;6.82;;;3.85;;
77222;SDS011;66218;48.928;9.140;2022-12-20T11:52:49;6.35;;;3.40;;
77222;SDS011;66218;48.928;9.140;2022-12-20T12:00:51;4.72;;;2.65;;
77222;SDS011;66218;48.928;9.140;2022-12-20T12:05:55;6.55;;;3.03;;
77222;SDS011;66218;48.928;9.140;2022-12-20T12:08:26;4.40;;;2.33;;
77222;SDS011;66218;48.928;9.140;2022-12-20T12:11:04;7.00;;;3.40;;
77222;SDS011;66218;48.928;9.140;2022-12-20T12:13:36;5.80;;;3.03;;
77222;SDS011;66218;48.928;9.140;2022-12-20T12:16:05;10.25;;;3.90;;
77222;SDS011;66218;48.928;9.140;2022-12-20T12:18:34;7.70;;;4.70;;
77222;SDS011;66218;48.928;9.140;2022-12-20T12:21:01;8.25;;;4.20;;
77222;SDS011;66218;48.928;9.140;2022-12-20T12:23:36;11.40;;;3.88;;
77222;SDS011;66218;48.928;9.140;2022-12-20T12:28:54;5.18;;;3.10;;
77222;SDS011;66218;48.928;9.140;2022-12-20T12:31:27;4.20;;;2.78;;
77222;SDS011;66218;48.928;9.140;2022-12-20T12:34:02;7.53;;;3.22;;
77222;SDS011;66218;48.928;9.140;2022-12-20T12:39:41;8.27;;;3.42;;
77222;SDS011;66218;48.928;9.140;2022-12-20T12:42:15;6.55;;;3.42;;
77222;SDS011;66218;48.928;9.140;2022-12-20T12:44:57;5.10;;;2.45;;
77222;SDS011;66218;48.928;9.140;2022-12-20T12:47:44;6.07;;;3.30;;
77222;SDS011;66218;48.928;9.140;2022-12-20T12:50:20;5.82;;;2.88;;
77222;SDS011;66218;48.928;9.140;2022-12-20T12:52:49;5.47;;;2.63;;
77222;SDS011;66218;48.928;9.140;2022-12-20T13:03:13;9.48;;;4.72;;
77222;SDS011;66218;48.928;9.140;2022-12-20T13:05:40;6.72;;;3.60;;
77222;SDS011;66218;48.928;9.140;2022-12-20T13:08:14;5.60;;;3.28;;
77222;SDS011;66218;48.928;9.140;2022-12-20T13:13:12;8.07;;;3.55;;
77222;SDS011;66218;48.928;9.140;2022-12-20T13:20:33;6.60;;;3.37;;
77222;SDS011;66218;48.928;9.140;2022-12-20T13:25:41;6.38;;;3.20;;
77222;SDS011;66218;48.928;9.140;2022-12-20T13:33:42;5.63;;;2.97;;
77222;SDS011;66218;48.928;9.140;2022-12-20T13:41:52;8.18;;;3.08;;
77222;SDS011;66218;48.928;9.140;2022-12-20T13:44:00;7.80;;;2.83;;
77222;SDS011;66218;48.928;9.140;2022-12-20T13:49:04;6.07;;;3.10;;
77222;SDS011;66218;48.928;9.140;2022-12-20T13:51:35;5.75;;;2.42;;
77222;SDS011;66218;48.928;9.140;2022-12-20T13:54:01;5.35;;;2.78;;
77222;SDS011;66218;48.928;9.140;2022-12-20T13:56:30;5.20;;;2.78;;
77222;SDS011;66218;48.928;9.140;2022-12-20T13:58:57;6.55;;;3.38;;
77222;SDS011;66218;48.928;9.140;2022-12-20T14:01:27;7.88;;;3.30;;
77222;SDS011;66218;48.928;9.140;2022-12-20T14:03:55;4.63;;;2.47;;
77222;SDS011;66218;48.928;9.140;2022-12-20T14:06:20;8.15;;;2.65;;
77222;SDS011;66218;48.928;9.140;2022-12-20T14:08:48;3.58;;;2.45;;
77222;SDS011;66218;48.928;9.140;2022-12-20T14:11:16;4.70;;;2.80;;
77222;SDS011;66218;48.928;9.140;2022-12-20T14:14:19;5.82;;;2.85;;
77222;SDS011;66218;48.928;9.140;2022-12-20T14:16:38;4.20;;;2.35;;
77222;SDS011;66218;48.928;9.140;2022-12-20T14:19:04;4.38;;;2.35;;
77222;SDS011;66218;48.928;9.140;2022-12-20T14:21:35;5.70;;;2.90;;
77222;SDS011;66218;48.928;9.140;2022-12-20T14:24:01;8.45;;;3.08;;
77222;SDS011;66218;48.928;9.140;2022-12-20T14:26:28;5.13;;;2.58;;
77222;SDS011;66218;48.928;9.140;2022-12-20T14:28:55;5.95;;;2.30;;
77222;SDS011;66218;48.928;9.140;2022-12-20T14:34:01;4.38;;;3.10;;
77222;SDS011;66218;48.928;9.140;2022-12-20T14:36:36;4.65;;;2.17;;
77222;SDS011;66218;48.928;9.140;2022-12-20T14:39:24;9.60;;;3.25;;
77222;SDS011;66218;48.928;9.140;2022-12-20T14:41:56;6.18;;;2.97;;
77222;SDS011;66218;48.928;9.140;2022-12-20T14:44:26;7.03;;;3.40;;
77222;SDS011;66218;48.928;9.140;2022-12-20T14:46:53;6.32;;;2.95;;
77222;SDS011;66218;48.928;9.140;2022-12-20T14:49:21;7.68;;;2.42;;
77222;SDS011;66218;48.928;9.140;2022-12-20T14:51:52;6.72;;;3.60;;
77222;SDS011;66218;48.928;9.140;2022-12-20T14:54:30;4.05;;;2.70;;
77222;SDS011;66218;48.928;9.140;2022-12-20T14:56:56;6.18;;;2.75;;
77222;SDS011;66218;48.928;9.140;2022-12-20T15:00:53;6.43;;;1.90;;
77222;SDS011;66218;48.928;9.140;2022-12-20T15:03:19;3.75;;;2.28;;
77222;SDS011;66218;48.928;9.140;2022-12-20T15:06:08;4.55;;;2.83;;
77222;SDS011;66218;48.928;9.140;2022-12-20T15:08:36;3.88;;;2.20;;
77222;SDS011;66218;48.928;9.140;2022-12-20T15:11:03;4.68;;;2.78;;
77222;SDS011;66218;48.928;9.140;2022-12-20T15:16:13;6.00;;;2.05;;
77222;SDS011;66218;48.928;9.140;2022-12-20T15:18:39;8.95;;;2.85;;
77222;SDS011;66218;48.928;9.140;2022-12-20T15:23:45;4.80;;;2.53;;
77222;SDS011;66218;48.928;9.140;2022-12-20T15:26:13;7.40;;;3.00;;
77222;SDS011;66218;48.928;9.140;2022-12-20T15:28:40;4.75;;;2.55;;
77222;SDS011;66218;48.928;9.140;2022-12-20T15:31:05;8.98;;;3.35;;
77222;SDS011;66218;48.928;9.140;2022-12-20T15:33:31;8.35;;;2.67;;
77222;SDS011;66218;48.928;9.140;2022-12-20T15:35:57;7.13;;;2.55;;
77222;SDS011;66218;48.928;9.140;2022-12-20T15:38:24;4.40;;;2.28;;
77222;SDS011;66218;48.928;9.140;2022-12-20T15:40:51;8.30;;;3.92;;
77222;SDS011;66218;48.928;9.140;2022-12-20T15:43:18;5.25;;;2.47;;
77222;SDS011;66218;48.928;9.140;2022-12-20T15:45:46;3.83;;;1.42;;
77222;SDS011;66218;48.928;9.140;2022-12-20T15:48:14;4.10;;;2.20;;
77222;SDS011;66218;48.928;9.140;2022-12-20T15:50:47;5.72;;;2.72;;
77222;SDS011;66218;48.928;9.140;2022-12-20T15:53:15;5.95;;;2.90;;
77222;SDS011;66218;48.928;9.140;2022-12-20T15:55:41;3.47;;;2.55;;
77222;SDS011;66218;48.928;9.140;2022-12-20T15:58:07;6.25;;;2.50;;
77222;SDS011;66218;48.928;9.140;2022-12-20T16:00:33;15.00;;;2.92;;
77222;SDS011;66218;48.928;9.140;2022-12-20T16:02:59;7.30;;;3.72;;
77222;SDS011;66218;48.928;9.140;2022-12-20T16:05:25;6.10;;;3.15;;
77222;SDS011;66218;48.928;9.140;2022-12-20T16:07:51;7.88;;;3.13;;
77222;SDS011;66218;48.928;9.140;2022-12-20T16:10:19;6.22;;;2.25;;
77222;SDS011;66218;48.928;9.140;2022-12-20T16:12:44;5.47;;;2.72;;
77222;SDS011;66218;48.928;9.140;2022-12-20T16:15:16;5.82;;;3.40;;
77222;SDS011;66218;48.928;9.140;2022-12-20T16:17:45;5.18;;;2.45;;
77222;SDS011;66218;48.928;9.140;2022-12-20T16:20:13;6.40;;;2.22;;
77222;SDS011;66218;48.928;9.140;2022-12-20T16:22:39;4.97;;;2.45;;
77222;SDS011;66218;48.928;9.140;2022-12-20T16:25:13;7.15;;;3.50;;
77222;SDS011;66218;48.928;9.140;2022-12-20T16:27:47;5.72;;;2.95;;
77222;SDS011;66218;48.928;9.140;2022-12-20T16:30:13;7.95;;;2.95;;
77222;SDS011;66218;48.928;9.140;2022-12-20T16:32:38;5.05;;;2.92;;
77222;SDS011;66218;48.928;9.140;2022-12-20T16:35:26;3.97;;;2.38;;
77222;SDS011;66218;48.928;9.140;2022-12-20T16:37:58;9.70;;;3.03;;
77222;SDS011;66218;48.928;9.140;2022-12-20T16:40:30;5.25;;;2.20;;
77222;SDS011;66218;48.928;9.140;2022-12-20T16:42:57;3.78;;;2.20;;
77222;SDS011;66218;48.928;9.140;2022-12-20T16:45:24;4.75;;;2.53;;
77222;SDS011;66218;48.928;9.140;2022-12-20T16:47:52;7.03;;;3.08;;
77222;SDS011;66218;48.928;9.140;2022-12-20T16:50:22;5.18;;;3.25;;
77222;SDS011;66218;48.928;9.140;2022-12-20T16:52:48;5.70;;;2.00;;
77222;SDS011;66218;48.928;9.140;2022-12-20T16:55:22;5.78;;;3.35;;